createdAt,value
2023-05-07T00:01:57.984Z,2.75
2023-05-07T00:04:59.498Z,2.60
2023-05-07T00:08:00.909Z,2.47
2023-05-07T00:11:02.188Z,2.58
2023-05-07T00:14:03.478Z,2.58
2023-05-07T00:17:04.796Z,3.03
2023-05-07T00:20:06.572Z,2.53
2023-05-07T00:23:07.890Z,2.60
2023-05-07T00:26:09.140Z,2.42
2023-05-07T00:29:10.735Z,3.03
2023-05-07T00:32:12.115Z,2.83
2023-05-07T00:35:13.745Z,2.92
2023-05-07T00:38:15.148Z,3.25
2023-05-07T00:41:16.488Z,2.80
2023-05-07T00:44:19.229Z,2.78
2023-05-07T00:47:21.016Z,2.50
2023-05-07T00:50:23.138Z,3.15
2023-05-07T00:53:24.443Z,2.92
2023-05-07T00:56:25.822Z,2.78
2023-05-07T00:59:27.140Z,3.00
2023-05-07T01:02:28.660Z,2.95
2023-05-07T01:05:31.440Z,3.28
2023-05-07T01:08:33.540Z,3.20
2023-05-07T01:11:34.896Z,2.92
2023-05-07T01:14:36.229Z,3.45
2023-05-07T01:17:38.757Z,2.70
2023-05-07T01:20:40.093Z,2.95
2023-05-07T01:23:42.237Z,3.17
2023-05-07T01:26:44.632Z,3.33
2023-05-07T01:29:45.887Z,3.25
2023-05-07T01:32:47.289Z,2.92
2023-05-07T01:35:51.130Z,2.90
2023-05-07T01:38:52.923Z,3.13
2023-05-07T01:41:57.608Z,3.20
2023-05-07T01:44:58.928Z,3.22
2023-05-07T01:48:01.848Z,2.92
2023-05-07T01:51:03.253Z,3.03
2023-05-07T01:54:04.684Z,3.25
2023-05-07T01:57:06.031Z,3.15
2023-05-07T02:00:07.703Z,3.53
2023-05-07T02:03:09.375Z,3.28
2023-05-07T02:06:10.855Z,2.72
2023-05-07T02:09:12.356Z,3.38
2023-05-07T02:12:13.696Z,3.17
2023-05-07T02:15:15.015Z,3.33
2023-05-07T02:18:16.920Z,3.28
2023-05-07T02:21:18.361Z,3.00
2023-05-07T02:24:19.713Z,3.13
2023-05-07T02:27:21.008Z,3.17
2023-05-07T02:30:22.723Z,2.95
2023-05-07T02:33:23.962Z,3.40
2023-05-07T02:36:25.275Z,2.97
2023-05-07T02:39:26.670Z,3.17
2023-05-07T02:42:27.907Z,2.80
2023-05-07T02:45:29.323Z,3.22
2023-05-07T02:48:30.815Z,2.95
2023-05-07T02:51:32.451Z,3.15
2023-05-07T02:54:33.699Z,3.45
2023-05-07T02:57:35.448Z,3.08
2023-05-07T03:00:36.833Z,3.22
2023-05-07T03:03:38.213Z,3.10
2023-05-07T03:06:39.504Z,3.35
2023-05-07T03:09:40.867Z,2.88
2023-05-07T03:12:42.236Z,3.72
2023-05-07T03:15:43.671Z,3.70
2023-05-07T03:18:45.009Z,2.97
2023-05-07T03:21:46.550Z,3.30
2023-05-07T03:24:47.804Z,3.80
2023-05-07T03:27:49.097Z,3.08
2023-05-07T03:30:50.487Z,3.22
2023-05-07T03:33:52.985Z,3.13
2023-05-07T03:36:54.275Z,3.65
2023-05-07T03:39:55.648Z,3.83
2023-05-07T03:42:56.952Z,4.00
2023-05-07T03:45:58.327Z,4.43
2023-05-07T03:48:59.679Z,3.30
2023-05-07T03:52:01.077Z,3.90
2023-05-07T03:55:02.358Z,3.35
2023-05-07T03:58:03.628Z,3.35
2023-05-07T04:01:04.924Z,3.15
2023-05-07T04:04:06.454Z,3.25
2023-05-07T04:07:08.375Z,3.47
2023-05-07T04:10:10.049Z,3.33
2023-05-07T04:13:11.528Z,3.70
2023-05-07T04:16:12.901Z,3.45
2023-05-07T04:19:14.162Z,3.25
2023-05-07T04:22:15.565Z,3.40
2023-05-07T04:25:17.313Z,3.22
2023-05-07T04:28:18.833Z,4.15
2023-05-07T04:31:20.829Z,3.30
2023-05-07T04:34:22.345Z,3.22
2023-05-07T04:37:23.667Z,3.45
2023-05-07T04:40:24.992Z,2.95
2023-05-07T04:43:26.677Z,2.92
2023-05-07T04:46:28.237Z,2.95
2023-05-07T04:49:29.723Z,3.03
2023-05-07T04:52:31.013Z,3.53
2023-05-07T04:55:32.272Z,3.15
2023-05-07T04:58:33.590Z,2.85
2023-05-07T05:01:34.954Z,3.13
2023-05-07T05:04:36.302Z,3.15
2023-05-07T05:07:37.675Z,3.17
2023-05-07T05:10:39.149Z,3.25
2023-05-07T05:13:40.535Z,2.83
2023-05-07T05:16:41.884Z,2.83
2023-05-07T05:19:43.214Z,3.08
2023-05-07T05:22:44.724Z,3.17
2023-05-07T05:25:46.443Z,2.88
2023-05-07T05:28:47.883Z,3.35
2023-05-07T05:31:49.317Z,2.78
2023-05-07T05:34:50.616Z,3.03
2023-05-07T05:37:52.584Z,3.10
2023-05-07T05:40:56.659Z,3.15
2023-05-07T05:44:02.110Z,3.28
2023-05-07T05:47:03.995Z,3.35
2023-05-07T05:50:07.425Z,3.60
2023-05-07T05:53:08.812Z,3.70
2023-05-07T05:56:10.157Z,3.53
2023-05-07T05:59:12.132Z,3.30
2023-05-07T06:02:13.463Z,3.40
2023-05-07T06:05:14.870Z,3.53
2023-05-07T06:08:16.544Z,3.60
2023-05-07T06:11:17.871Z,3.40
2023-05-07T06:14:21.802Z,3.50
2023-05-07T06:17:23.199Z,3.97
2023-05-07T06:20:24.538Z,3.38
2023-05-07T06:23:25.808Z,2.90
2023-05-07T06:26:27.322Z,3.83
2023-05-07T06:29:32.428Z,3.60
2023-05-07T06:32:33.832Z,3.63
2023-05-07T06:35:35.316Z,3.42
2023-05-07T06:38:36.689Z,3.42
2023-05-07T06:41:38.198Z,3.30
2023-05-07T06:44:39.484Z,3.22
2023-05-07T06:47:40.983Z,3.75
2023-05-07T06:50:42.707Z,3.60
2023-05-07T06:53:43.993Z,3.67
2023-05-07T06:56:45.648Z,3.25
2023-05-07T06:59:46.980Z,3.65
2023-05-07T07:02:48.389Z,3.22
2023-05-07T07:05:52.508Z,2.97
2023-05-07T07:08:53.754Z,3.03
2023-05-07T07:11:55.524Z,3.53
2023-05-07T07:14:56.986Z,3.00
2023-05-07T07:17:58.310Z,2.92
2023-05-07T07:21:00.038Z,2.65
2023-05-07T07:24:03.955Z,2.88
2023-05-07T07:27:06.223Z,2.80
2023-05-07T07:30:10.035Z,2.60
2023-05-07T07:33:12.005Z,2.58
2023-05-07T07:36:13.396Z,3.30
2023-05-07T07:39:14.794Z,2.33
2023-05-07T07:42:16.109Z,2.47
2023-05-07T07:45:17.690Z,2.40
2023-05-07T07:48:18.949Z,2.42
2023-05-07T07:51:20.597Z,2.28
2023-05-07T07:54:21.931Z,2.38
2023-05-07T07:57:23.430Z,2.45
2023-05-07T08:00:24.812Z,2.33
2023-05-07T08:03:26.176Z,2.40
2023-05-07T08:06:27.926Z,2.67
2023-05-07T08:09:29.208Z,2.58
2023-05-07T08:12:30.535Z,2.58
2023-05-07T08:15:32.098Z,2.40
2023-05-07T08:18:33.402Z,2.53
2023-05-07T08:21:35.115Z,2.42
2023-05-07T08:24:36.710Z,2.15
2023-05-07T08:27:38.017Z,2.22
2023-05-07T08:30:39.464Z,2.47
2023-05-07T08:33:40.786Z,2.83
2023-05-07T08:36:42.866Z,3.05
2023-05-07T08:39:44.180Z,2.35
2023-05-07T08:42:47.073Z,2.42
2023-05-07T08:45:50.253Z,2.28
2023-05-07T08:48:52.518Z,2.65
2023-05-07T08:51:53.901Z,2.08
2023-05-07T08:54:55.346Z,2.10
2023-05-07T08:57:56.974Z,2.10
2023-05-07T09:00:59.007Z,1.98
2023-05-07T09:04:01.459Z,2.22
2023-05-07T09:07:06.265Z,2.15
2023-05-07T09:10:07.876Z,2.20
2023-05-07T09:13:10.169Z,1.77
2023-05-07T09:16:14.963Z,2.13
2023-05-07T09:19:16.420Z,2.03
2023-05-07T09:22:17.680Z,1.80
2023-05-07T09:25:28.440Z,2.30
2023-05-07T09:28:29.735Z,2.05
2023-05-07T09:31:31.016Z,1.88
2023-05-07T09:34:32.732Z,1.90
2023-05-07T09:37:34.122Z,1.73
2023-05-07T09:40:35.421Z,1.85
2023-05-07T09:43:37.591Z,3.55
2023-05-07T09:46:39.545Z,1.92
2023-05-07T09:49:43.169Z,1.73
2023-05-07T09:52:45.005Z,1.95
2023-05-07T09:55:47.031Z,1.70
2023-05-07T09:58:49.221Z,1.73
2023-05-07T10:01:52.138Z,2.03
2023-05-07T10:04:53.785Z,1.75
2023-05-07T10:07:55.317Z,1.55
2023-05-07T10:10:56.614Z,1.85
2023-05-07T10:13:58.042Z,1.73
2023-05-07T10:17:00.284Z,1.60
2023-05-07T10:20:03.809Z,1.77
2023-05-07T10:23:06.805Z,1.85
2023-05-07T10:26:08.925Z,2.00
2023-05-07T10:29:16.460Z,2.60
2023-05-07T10:32:30.672Z,1.75
2023-05-07T10:35:33.772Z,1.88
2023-05-07T10:38:35.120Z,1.60
2023-05-07T10:41:43.360Z,1.80
2023-05-07T10:44:44.824Z,1.70
2023-05-07T10:48:07.065Z,2.70
2023-05-07T10:51:20.064Z,1.83
2023-05-07T10:54:22.995Z,1.80
2023-05-07T10:57:33.671Z,1.60
2023-05-07T11:00:39.417Z,1.88
2023-05-07T11:03:59.506Z,1.58
2023-05-07T11:07:10.054Z,1.83
2023-05-07T11:10:11.468Z,1.73
2023-05-07T11:13:12.830Z,1.73
2023-05-07T11:16:21.278Z,1.77
2023-05-07T11:19:46.172Z,1.85
2023-05-07T11:22:49.966Z,1.60
2023-05-07T11:25:51.500Z,1.60
2023-05-07T11:28:53.200Z,1.80
2023-05-07T11:31:55.805Z,1.85
2023-05-07T11:38:01.617Z,1.70
2023-05-07T11:41:05.640Z,2.47
2023-05-07T11:44:07.002Z,1.40
2023-05-07T11:47:08.368Z,2.03
2023-05-07T11:50:11.351Z,1.48
2023-05-07T11:53:13.946Z,1.50
2023-05-07T11:56:16.691Z,1.58
2023-05-07T11:59:18.417Z,2.00
2023-05-07T12:02:19.806Z,1.42
2023-05-07T12:05:21.226Z,2.55
2023-05-07T12:08:22.939Z,1.70
2023-05-07T12:11:25.016Z,1.70
2023-05-07T12:14:28.824Z,1.90
2023-05-07T12:17:30.352Z,1.75
2023-05-07T12:20:31.775Z,1.60
2023-05-07T12:23:34.012Z,1.70
2023-05-07T12:26:38.650Z,2.25
2023-05-07T12:29:41.804Z,1.92
2023-05-07T12:32:45.982Z,1.50
2023-05-07T12:35:48.249Z,1.50
2023-05-07T12:38:52.614Z,2.38
2023-05-07T12:41:57.736Z,2.83
2023-05-07T12:44:59.312Z,1.70
2023-05-07T12:48:02.531Z,2.67
2023-05-07T12:51:04.175Z,1.50
2023-05-07T12:54:05.852Z,12.70
2023-05-07T12:57:08.324Z,2.90
2023-05-07T13:00:10.986Z,2.22
2023-05-07T13:03:12.499Z,3.03
2023-05-07T13:06:14.058Z,2.58
2023-05-07T13:09:15.356Z,6.32
2023-05-07T13:12:16.649Z,2.00
2023-05-07T13:15:18.324Z,2.83
2023-05-07T13:18:19.756Z,2.90
2023-05-07T13:21:21.169Z,2.53
2023-05-07T13:24:22.423Z,4.78
2023-05-07T13:27:23.652Z,2.45
2023-05-07T13:30:25.138Z,2.10
2023-05-07T13:33:26.413Z,1.92
2023-05-07T13:36:27.826Z,2.33
2023-05-07T13:39:29.128Z,1.88
2023-05-07T13:42:30.577Z,2.38
2023-05-07T13:45:31.979Z,2.33
2023-05-07T13:48:33.532Z,2.10
2023-05-07T13:51:34.848Z,2.42
2023-05-07T13:54:36.129Z,2.63
2023-05-07T13:57:37.905Z,2.60
2023-05-07T14:00:39.352Z,2.95
2023-05-07T14:03:41.019Z,3.15
2023-05-07T14:06:42.438Z,3.00
2023-05-07T14:09:43.749Z,3.33
2023-05-07T14:12:45.712Z,2.85
2023-05-07T14:15:47.729Z,2.67
2023-05-07T14:18:49.063Z,3.10
2023-05-07T14:21:50.470Z,2.78
2023-05-07T14:25:03.248Z,2.88
2023-05-07T14:28:08.672Z,3.22
2023-05-07T14:31:10.843Z,3.13
2023-05-07T14:34:12.135Z,3.25
2023-05-07T14:37:13.646Z,3.03
2023-05-07T14:40:15.739Z,2.92
2023-05-07T14:43:17.107Z,3.25
2023-05-07T14:46:18.949Z,3.38
2023-05-07T14:49:21.013Z,2.97
2023-05-07T14:52:22.342Z,3.25
2023-05-07T14:55:23.584Z,3.30
2023-05-07T14:58:25.055Z,3.33
2023-05-07T15:01:26.556Z,2.33
2023-05-07T15:04:27.939Z,2.15
2023-05-07T15:07:29.207Z,2.15
2023-05-07T15:10:30.513Z,1.98
2023-05-07T15:13:31.999Z,1.88
2023-05-07T15:16:33.913Z,2.22
2023-05-07T15:19:35.228Z,3.13
2023-05-07T15:22:38.007Z,2.92
2023-05-07T15:25:39.344Z,2.40
2023-05-07T15:28:41.265Z,2.60
2023-05-07T15:31:42.801Z,2.63
2023-05-07T15:34:44.158Z,2.25
2023-05-07T15:37:45.485Z,2.67
2023-05-07T15:40:46.796Z,2.70
2023-05-07T15:43:50.081Z,2.35
2023-05-07T15:46:51.434Z,3.22
2023-05-07T15:49:52.927Z,2.97
2023-05-07T15:52:54.808Z,2.60
2023-05-07T15:55:56.069Z,2.60
2023-05-07T15:58:58.203Z,2.72
2023-05-07T16:01:59.967Z,3.35
2023-05-07T16:05:01.250Z,2.80
2023-05-07T16:08:02.566Z,3.22
2023-05-07T16:11:03.822Z,3.83
2023-05-07T16:14:05.290Z,3.58
2023-05-07T16:17:06.859Z,4.05
2023-05-07T16:20:09.102Z,3.08
2023-05-07T16:23:10.510Z,2.80
2023-05-07T16:26:13.605Z,2.85
2023-05-07T16:29:15.986Z,3.05
2023-05-07T16:32:17.294Z,3.08
2023-05-07T16:35:18.734Z,2.92
2023-05-07T16:38:20.297Z,3.33
2023-05-07T16:41:22.068Z,2.72
2023-05-07T16:44:23.445Z,4.32
2023-05-07T16:47:24.818Z,3.47
2023-05-07T16:50:26.421Z,4.40
2023-05-07T16:53:27.796Z,3.55
2023-05-07T16:56:29.438Z,2.92
2023-05-07T16:59:33.285Z,3.13
2023-05-07T17:02:37.502Z,3.10
2023-05-07T17:08:42.895Z,2.72
2023-05-07T17:11:44.565Z,2.92
2023-05-07T17:14:45.858Z,3.05
2023-05-07T17:17:47.259Z,3.28
2023-05-07T17:20:48.606Z,3.47
2023-05-07T17:23:49.902Z,3.15
2023-05-07T17:26:51.236Z,3.33
2023-05-07T17:29:52.627Z,3.25
2023-05-07T17:32:56.438Z,2.78
2023-05-07T17:36:02.873Z,3.63
2023-05-07T17:39:04.453Z,2.97
2023-05-07T17:42:05.798Z,3.10
2023-05-07T17:45:07.425Z,3.33
2023-05-07T17:48:08.753Z,3.28
2023-05-07T17:51:10.190Z,3.30
2023-05-07T17:54:11.628Z,3.22
2023-05-07T17:57:12.992Z,3.60
2023-05-07T18:00:14.782Z,3.65
2023-05-07T18:03:16.311Z,3.60
2023-05-07T18:06:22.616Z,3.20
2023-05-07T18:09:23.999Z,3.78
2023-05-07T18:12:27.439Z,3.47
2023-05-07T18:15:29.104Z,3.05
2023-05-07T18:18:31.746Z,2.75
2023-05-07T18:21:33.120Z,3.10
2023-05-07T18:24:34.433Z,2.70
2023-05-07T18:27:35.760Z,3.05
2023-05-07T18:30:37.083Z,2.88
2023-05-07T18:33:39.131Z,3.28
2023-05-07T18:36:40.605Z,3.03
2023-05-07T18:39:43.472Z,3.10
2023-05-07T18:42:44.827Z,3.03
2023-05-07T18:45:49.573Z,3.33
2023-05-07T18:48:50.975Z,3.08
2023-05-07T18:51:53.217Z,3.17
2023-05-07T18:54:54.562Z,3.88
2023-05-07T18:57:55.854Z,3.58
2023-05-07T19:00:57.354Z,3.75
2023-05-07T19:03:58.883Z,4.05
2023-05-07T19:07:00.252Z,4.35
2023-05-07T19:10:05.688Z,4.13
2023-05-07T19:13:07.610Z,4.40
2023-05-07T19:16:12.394Z,3.95
2023-05-07T19:19:13.780Z,3.58
2023-05-07T19:22:15.702Z,4.07
2023-05-07T19:25:18.196Z,3.83
2023-05-07T19:28:19.522Z,3.95
2023-05-07T19:31:21.563Z,4.13
2023-05-07T19:34:22.931Z,4.20
2023-05-07T19:37:25.537Z,4.20
2023-05-07T19:40:26.964Z,4.00
2023-05-07T19:43:28.269Z,4.25
2023-05-07T19:46:29.924Z,4.50
2023-05-07T19:49:31.540Z,4.32
2023-05-07T19:52:32.866Z,4.85
2023-05-07T19:55:34.309Z,4.53
2023-05-07T19:58:36.031Z,4.93
2023-05-07T20:01:39.050Z,4.78
2023-05-07T20:04:40.538Z,4.47
2023-05-07T20:07:42.127Z,4.85
2023-05-07T20:10:44.206Z,4.60
2023-05-07T20:13:45.544Z,5.35
2023-05-07T20:16:46.826Z,5.03
2023-05-07T20:19:48.121Z,4.88
2023-05-07T20:22:49.456Z,4.47
2023-05-07T20:25:50.886Z,5.57
2023-05-07T20:28:52.244Z,5.22
2023-05-07T20:31:53.706Z,5.45
2023-05-07T20:34:55.595Z,5.70
2023-05-07T20:37:56.922Z,5.93
2023-05-07T20:40:58.309Z,6.22
2023-05-07T20:44:00.425Z,6.82
2023-05-07T20:47:02.021Z,6.45
2023-05-07T20:50:03.416Z,5.65
2023-05-07T20:53:04.667Z,6.78
2023-05-07T20:56:05.973Z,6.15
2023-05-07T20:59:07.377Z,5.82
2023-05-07T21:02:08.894Z,5.53
2023-05-07T21:05:10.160Z,4.28
2023-05-07T21:08:11.533Z,3.72
2023-05-07T21:11:13.101Z,3.45
2023-05-07T21:14:14.403Z,2.92
2023-05-07T21:17:15.727Z,2.30
2023-05-07T21:20:17.056Z,2.17
2023-05-07T21:23:18.332Z,2.15
2023-05-07T21:26:20.053Z,2.22
2023-05-07T21:29:22.132Z,2.22
2023-05-07T21:32:23.708Z,2.25
2023-05-07T21:35:25.053Z,2.50
2023-05-07T21:38:26.377Z,2.63
2023-05-07T21:41:27.648Z,2.63
2023-05-07T21:44:29.732Z,2.80
2023-05-07T21:47:31.094Z,2.58
2023-05-07T21:50:33.110Z,2.63
2023-05-07T21:53:34.858Z,2.63
2023-05-07T21:56:36.172Z,2.60
2023-05-07T21:59:38.124Z,2.92
2023-05-07T22:02:39.748Z,2.85
2023-05-07T22:05:41.240Z,2.60
2023-05-07T22:08:42.558Z,2.95
2023-05-07T22:11:43.898Z,2.92
2023-05-07T22:14:45.242Z,2.80
2023-05-07T22:17:46.565Z,2.53
2023-05-07T22:20:50.497Z,2.90
2023-05-07T22:23:51.786Z,2.65
2023-05-07T22:26:53.150Z,2.55
2023-05-07T22:29:55.543Z,3.10
2023-05-07T22:32:56.847Z,2.60
2023-05-07T22:35:58.259Z,2.75
2023-05-07T22:38:59.518Z,2.72
2023-05-07T22:42:02.179Z,2.42
2023-05-07T22:45:03.570Z,2.80
2023-05-07T22:48:05.299Z,2.83
2023-05-07T22:51:06.662Z,2.92
2023-05-07T22:54:08.850Z,2.47
2023-05-07T22:57:10.168Z,2.92
2023-05-07T23:00:12.292Z,2.88
2023-05-07T23:03:13.989Z,2.85
2023-05-07T23:06:15.500Z,2.70
2023-05-07T23:09:16.984Z,2.80
2023-05-07T23:12:18.343Z,3.28
2023-05-07T23:15:20.066Z,3.03
2023-05-07T23:18:21.529Z,3.17
2023-05-07T23:21:22.790Z,3.42
2023-05-07T23:24:24.062Z,3.30
2023-05-07T23:27:25.364Z,3.17
2023-05-07T23:30:26.739Z,3.25
2023-05-07T23:33:28.021Z,2.95
2023-05-07T23:36:29.304Z,3.67
2023-05-07T23:39:30.545Z,3.33
2023-05-07T23:42:31.789Z,3.95
2023-05-07T23:45:33.027Z,3.67
2023-05-07T23:48:34.284Z,4.05
2023-05-07T23:51:35.597Z,3.50
2023-05-07T23:54:37.133Z,3.60
2023-05-07T23:57:38.409Z,3.85
